Lumber City, Georgia
Current Conditions -  °F | °C
As of 12:15 PM on Thursday 30 Oct 2014 (Local Time) from KAZE Reporting Station
Clear Clear  
Wind Chill: 68°   Ceiling: Unl
Heat Index: 68°   Visibility: 10mi
Dew Point: 53°   Wind: 5mph
Humidity: 58%   Direction: 340°NNW
Pressure: 30"   Gusts: NA
Location:  31.93°N, 82.68°W
Report Text: KAZE 301615Z AUTO 34004KT 10SM CLR 20/12 A3000 RMK AO2 T02020118
Loading
Personal Weather Stations






























Interactive Weather Map
Tropical Storm Tracking
New forecast layout! Learn more

10-Day Weather Forecast

Advertisements
Track Severe Weather on mobile